sensor_id;sensor_type;location;lat;lon;timestamp;pressure;altitude;pressure_sealevel;temperature;humidity
3096;BME280;1558;42.700;23.360;2024-01-25T00:00:30;95887.31;;;3.82;100.00
3096;BME280;1558;42.700;23.360;2024-01-25T00:02:59;95892.63;;;3.87;100.00
3096;BME280;1558;42.700;23.360;2024-01-25T00:05:28;95884.63;;;3.82;100.00
3096;BME280;1558;42.700;23.360;2024-01-25T00:07:56;95883.84;;;3.81;100.00
3096;BME280;1558;42.700;23.360;2024-01-25T00:10:24;95871.84;;;3.74;100.00
3096;BME280;1558;42.700;23.360;2024-01-25T00:12:52;95855.41;;;3.57;100.00
3096;BME280;1558;42.700;23.360;2024-01-25T00:15:21;95836.72;;;3.57;100.00
3096;BME280;1558;42.700;23.360;2024-01-25T00:17:49;95827.97;;;3.51;100.00
3096;BME280;1558;42.700;23.360;2024-01-25T00:20:19;95788.81;;;3.41;100.00
3096;BME280;1558;42.700;23.360;2024-01-25T00:22:47;95807.41;;;3.57;100.00
3096;BME280;1558;42.700;23.360;2024-01-25T00:25:16;95809.75;;;3.68;100.00
3096;BME280;1558;42.700;23.360;2024-01-25T00:27:44;95816.38;;;3.76;100.00
3096;BME280;1558;42.700;23.360;2024-01-25T00:30:14;95820.59;;;3.87;100.00
3096;BME280;1558;42.700;23.360;2024-01-25T00:32:42;95824.28;;;3.91;100.00
3096;BME280;1558;42.700;23.360;2024-01-25T00:35:11;95823.25;;;3.87;100.00
3096;BME280;1558;42.700;23.360;2024-01-25T00:37:43;95813.06;;;3.94;100.00
3096;BME280;1558;42.700;23.360;2024-01-25T00:40:12;95794.88;;;4.01;100.00
3096;BME280;1558;42.700;23.360;2024-01-25T00:42:42;95732.34;;;3.73;100.00
3096;BME280;1558;42.700;23.360;2024-01-25T00:45:12;95752.84;;;3.83;100.00
3096;BME280;1558;42.700;23.360;2024-01-25T00:47:43;95778.72;;;3.82;100.00
3096;BME280;1558;42.700;23.360;2024-01-25T00:50:12;95789.19;;;3.69;100.00
3096;BME280;1558;42.700;23.360;2024-01-25T00:52:43;95781.75;;;3.71;100.00
3096;BME280;1558;42.700;23.360;2024-01-25T00:55:12;95796.09;;;3.80;100.00
3096;BME280;1558;42.700;23.360;2024-01-25T00:57:41;95765.31;;;3.54;100.00
3096;BME280;1558;42.700;23.360;2024-01-25T01:00:10;95804.06;;;3.85;100.00
3096;BME280;1558;42.700;23.360;2024-01-25T01:02:41;95809.94;;;3.82;100.00
3096;BME280;1558;42.700;23.360;2024-01-25T01:05:11;95772.19;;;3.60;100.00
3096;BME280;1558;42.700;23.360;2024-01-25T01:07:42;95805.03;;;3.99;100.00
3096;BME280;1558;42.700;23.360;2024-01-25T01:10:12;95799.66;;;4.04;100.00
3096;BME280;1558;42.700;23.360;2024-01-25T01:12:41;95729.22;;;3.66;100.00
3096;BME280;1558;42.700;23.360;2024-01-25T01:15:10;95762.41;;;3.89;100.00
3096;BME280;1558;42.700;23.360;2024-01-25T01:17:38;95759.81;;;3.79;100.00
3096;BME280;1558;42.700;23.360;2024-01-25T01:20:07;95749.69;;;3.76;100.00
3096;BME280;1558;42.700;23.360;2024-01-25T01:22:36;95753.97;;;3.72;100.00
3096;BME280;1558;42.700;23.360;2024-01-25T01:25:05;95740.31;;;3.78;100.00
3096;BME280;1558;42.700;23.360;2024-01-25T01:27:37;95748.31;;;3.83;100.00
3096;BME280;1558;42.700;23.360;2024-01-25T01:30:08;95740.63;;;3.77;100.00
3096;BME280;1558;42.700;23.360;2024-01-25T01:32:37;95748.88;;;3.80;100.00
3096;BME280;1558;42.700;23.360;2024-01-25T01:35:06;95745.44;;;3.75;100.00
3096;BME280;1558;42.700;23.360;2024-01-25T01:37:34;95760.94;;;3.68;100.00
3096;BME280;1558;42.700;23.360;2024-01-25T01:40:05;95745.00;;;3.58;100.00
3096;BME280;1558;42.700;23.360;2024-01-25T01:42:33;95728.44;;;3.17;100.00
3096;BME280;1558;42.700;23.360;2024-01-25T01:45:01;95752.16;;;3.18;100.00
3096;BME280;1558;42.700;23.360;2024-01-25T01:47:29;95745.44;;;3.26;100.00
3096;BME280;1558;42.700;23.360;2024-01-25T01:49:58;95741.50;;;3.18;100.00
3096;BME280;1558;42.700;23.360;2024-01-25T01:52:27;95729.03;;;3.04;100.00
3096;BME280;1558;42.700;23.360;2024-01-25T01:54:56;95714.13;;;2.98;100.00
3096;BME280;1558;42.700;23.360;2024-01-25T01:57:28;95723.97;;;2.97;100.00
3096;BME280;1558;42.700;23.360;2024-01-25T01:59:59;95714.94;;;2.93;100.00
3096;BME280;1558;42.700;23.360;2024-01-25T02:02:30;95721.09;;;2.89;100.00
3096;BME280;1558;42.700;23.360;2024-01-25T02:05:01;95718.94;;;2.91;100.00
3096;BME280;1558;42.700;23.360;2024-01-25T02:07:30;95715.47;;;2.95;100.00
3096;BME280;1558;42.700;23.360;2024-01-25T02:09:58;95709.06;;;3.01;100.00
3096;BME280;1558;42.700;23.360;2024-01-25T02:12:28;95688.81;;;3.00;100.00
3096;BME280;1558;42.700;23.360;2024-01-25T02:14:56;95703.94;;;3.15;100.00
3096;BME280;1558;42.700;23.360;2024-01-25T02:17:26;95702.59;;;3.12;100.00
3096;BME280;1558;42.700;23.360;2024-01-25T02:19:54;95708.53;;;2.99;100.00
3096;BME280;1558;42.700;23.360;2024-01-25T02:22:24;95695.97;;;3.05;100.00
3096;BME280;1558;42.700;23.360;2024-01-25T02:24:52;95711.63;;;3.16;100.00
3096;BME280;1558;42.700;23.360;2024-01-25T02:27:20;95687.25;;;2.99;100.00
3096;BME280;1558;42.700;23.360;2024-01-25T02:29:49;95684.00;;;3.02;100.00
3096;BME280;1558;42.700;23.360;2024-01-25T02:32:17;95698.38;;;3.11;100.00
3096;BME280;1558;42.700;23.360;2024-01-25T02:34:45;95689.81;;;3.14;100.00
3096;BME280;1558;42.700;23.360;2024-01-25T02:37:13;95691.38;;;3.20;100.00
3096;BME280;1558;42.700;23.360;2024-01-25T02:39:43;95699.34;;;3.25;100.00
3096;BME280;1558;42.700;23.360;2024-01-25T02:42:11;95697.72;;;3.29;100.00
3096;BME280;1558;42.700;23.360;2024-01-25T02:44:41;95684.41;;;3.29;100.00
3096;BME280;1558;42.700;23.360;2024-01-25T02:47:09;95696.94;;;3.29;100.00
3096;BME280;1558;42.700;23.360;2024-01-25T02:49:37;95669.09;;;3.06;100.00
3096;BME280;1558;42.700;23.360;2024-01-25T02:52:05;95687.13;;;3.14;100.00
3096;BME280;1558;42.700;23.360;2024-01-25T02:54:34;95662.47;;;2.99;100.00
3096;BME280;1558;42.700;23.360;2024-01-25T02:57:05;95682.91;;;3.08;100.00
3096;BME280;1558;42.700;23.360;2024-01-25T02:59:33;95649.00;;;2.75;100.00
3096;BME280;1558;42.700;23.360;2024-01-25T03:02:01;95678.41;;;3.04;100.00
3096;BME280;1558;42.700;23.360;2024-01-25T03:04:30;95673.91;;;2.99;100.00
3096;BME280;1558;42.700;23.360;2024-01-25T03:06:58;95670.44;;;2.99;100.00
3096;BME280;1558;42.700;23.360;2024-01-25T03:09:26;95677.06;;;3.06;100.00
3096;BME280;1558;42.700;23.360;2024-01-25T03:11:55;95684.28;;;3.06;100.00
3096;BME280;1558;42.700;23.360;2024-01-25T03:14:24;95673.91;;;2.99;100.00
3096;BME280;1558;42.700;23.360;2024-01-25T03:16:53;95690.59;;;3.20;100.00
3096;BME280;1558;42.700;23.360;2024-01-25T03:19:25;95671.66;;;3.16;100.00
3096;BME280;1558;42.700;23.360;2024-01-25T03:21:54;95655.13;;;3.19;100.00
3096;BME280;1558;42.700;23.360;2024-01-25T03:24:22;95664.72;;;3.25;100.00
3096;BME280;1558;42.700;23.360;2024-01-25T03:26:51;95661.41;;;3.38;100.00
3096;BME280;1558;42.700;23.360;2024-01-25T03:29:19;95613.94;;;3.40;100.00
3096;BME280;1558;42.700;23.360;2024-01-25T03:31:48;95667.78;;;4.10;100.00
3096;BME280;1558;42.700;23.360;2024-01-25T03:34:17;95679.69;;;4.46;100.00
3096;BME280;1558;42.700;23.360;2024-01-25T03:36:45;95667.13;;;4.94;100.00
3096;BME280;1558;42.700;23.360;2024-01-25T03:39:14;95665.91;;;5.24;100.00
3096;BME280;1558;42.700;23.360;2024-01-25T03:41:42;95641.41;;;5.54;100.00
3096;BME280;1558;42.700;23.360;2024-01-25T03:44:10;95627.59;;;5.84;100.00
3096;BME280;1558;42.700;23.360;2024-01-25T03:46:38;95601.31;;;5.86;100.00
3096;BME280;1558;42.700;23.360;2024-01-25T03:49:08;95619.03;;;6.14;100.00
3096;BME280;1558;42.700;23.360;2024-01-25T03:51:36;95642.75;;;6.35;100.00
3096;BME280;1558;42.700;23.360;2024-01-25T03:54:05;95605.56;;;6.33;100.00
3096;BME280;1558;42.700;23.360;2024-01-25T03:56:33;95622.94;;;6.49;100.00
3096;BME280;1558;42.700;23.360;2024-01-25T03:59:01;95628.00;;;6.51;100.00
3096;BME280;1558;42.700;23.360;2024-01-25T04:01:30;95649.34;;;6.56;100.00
3096;BME280;1558;42.700;23.360;2024-01-25T04:03:58;95625.22;;;6.56;99.37
3096;BME280;1558;42.700;23.360;2024-01-25T04:06:28;95612.13;;;6.54;99.10
3096;BME280;1558;42.700;23.360;2024-01-25T04:08:56;95625.69;;;6.44;97.58
3096;BME280;1558;42.700;23.360;2024-01-25T04:11:25;95610.91;;;6.33;98.27
3096;BME280;1558;42.700;23.360;2024-01-25T04:13:54;95602.78;;;6.25;97.88
3096;BME280;1558;42.700;23.360;2024-01-25T04:16:23;95599.97;;;6.02;96.75
3096;BME280;1558;42.700;23.360;2024-01-25T04:18:51;95593.28;;;5.86;97.60
3096;BME280;1558;42.700;23.360;2024-01-25T04:21:19;95600.53;;;5.67;98.49
3096;BME280;1558;42.700;23.360;2024-01-25T04:23:49;95601.94;;;5.65;98.29
3096;BME280;1558;42.700;23.360;2024-01-25T04:26:17;95614.44;;;5.69;99.17
3096;BME280;1558;42.700;23.360;2024-01-25T04:28:46;95616.63;;;5.81;98.78
3096;BME280;1558;42.700;23.360;2024-01-25T04:31:16;95604.13;;;5.76;98.78
3096;BME280;1558;42.700;23.360;2024-01-25T04:33:44;95599.22;;;5.51;98.75
3096;BME280;1558;42.700;23.360;2024-01-25T04:36:15;95599.28;;;5.46;99.26
3096;BME280;1558;42.700;23.360;2024-01-25T04:38:43;95596.47;;;5.37;99.56
3096;BME280;1558;42.700;23.360;2024-01-25T04:41:13;95614.31;;;5.42;100.00
3096;BME280;1558;42.700;23.360;2024-01-25T04:43:41;95626.19;;;5.36;100.00
3096;BME280;1558;42.700;23.360;2024-01-25T04:46:09;95636.69;;;5.32;100.00
3096;BME280;1558;42.700;23.360;2024-01-25T04:48:37;95643.16;;;5.26;100.00
3096;BME280;1558;42.700;23.360;2024-01-25T04:51:06;95642.97;;;5.23;100.00
3096;BME280;1558;42.700;23.360;2024-01-25T04:53:36;95647.28;;;5.19;100.00
3096;BME280;1558;42.700;23.360;2024-01-25T04:56:04;95647.63;;;5.12;100.00
3096;BME280;1558;42.700;23.360;2024-01-25T04:58:34;95642.59;;;5.11;100.00
3096;BME280;1558;42.700;23.360;2024-01-25T05:01:02;95649.50;;;5.12;100.00
3096;BME280;1558;42.700;23.360;2024-01-25T05:03:31;95637.88;;;5.03;100.00
3096;BME280;1558;42.700;23.360;2024-01-25T05:05:59;95670.38;;;5.10;100.00
3096;BME280;1558;42.700;23.360;2024-01-25T05:08:27;95668.22;;;5.12;100.00
3096;BME280;1558;42.700;23.360;2024-01-25T05:10:55;95661.31;;;5.11;100.00
3096;BME280;1558;42.700;23.360;2024-01-25T05:13:24;95656.91;;;5.20;100.00
3096;BME280;1558;42.700;23.360;2024-01-25T05:15:53;95619.22;;;4.98;99.38
3096;BME280;1558;42.700;23.360;2024-01-25T05:18:22;95673.75;;;5.39;98.12
3096;BME280;1558;42.700;23.360;2024-01-25T05:20:50;95694.78;;;5.45;97.46
3096;BME280;1558;42.700;23.360;2024-01-25T05:23:18;95689.72;;;5.44;96.38
3096;BME280;1558;42.700;23.360;2024-01-25T05:25:46;95684.28;;;5.30;96.65
3096;BME280;1558;42.700;23.360;2024-01-25T05:28:15;95699.56;;;5.48;96.02
3096;BME280;1558;42.700;23.360;2024-01-25T05:30:43;95685.06;;;5.49;95.60
3096;BME280;1558;42.700;23.360;2024-01-25T05:33:13;95702.00;;;5.45;95.42
3096;BME280;1558;42.700;23.360;2024-01-25T05:35:41;95696.56;;;5.50;95.19
3096;BME280;1558;42.700;23.360;2024-01-25T05:38:09;95685.00;;;5.36;94.72
3096;BME280;1558;42.700;23.360;2024-01-25T05:40:37;95715.53;;;5.54;94.62
3096;BME280;1558;42.700;23.360;2024-01-25T05:43:06;95715.53;;;5.72;93.88
3096;BME280;1558;42.700;23.360;2024-01-25T05:45:34;95712.94;;;5.86;92.74
3096;BME280;1558;42.700;23.360;2024-01-25T05:48:02;95716.28;;;5.96;91.96
3096;BME280;1558;42.700;23.360;2024-01-25T05:50:32;95720.44;;;6.02;91.13
3096;BME280;1558;42.700;23.360;2024-01-25T05:53:01;95721.97;;;6.08;90.27
3096;BME280;1558;42.700;23.360;2024-01-25T05:55:29;95722.59;;;6.19;89.37
3096;BME280;1558;42.700;23.360;2024-01-25T05:57:57;95694.91;;;6.24;90.37
3096;BME280;1558;42.700;23.360;2024-01-25T06:00:26;95723.22;;;6.30;89.72
3096;BME280;1558;42.700;23.360;2024-01-25T06:02:55;95724.88;;;6.26;89.64
3096;BME280;1558;42.700;23.360;2024-01-25T06:05:23;95728.16;;;6.23;89.96
3096;BME280;1558;42.700;23.360;2024-01-25T06:07:53;95714.72;;;6.09;89.98
3096;BME280;1558;42.700;23.360;2024-01-25T06:10:22;95733.00;;;6.21;91.17
3096;BME280;1558;42.700;23.360;2024-01-25T06:12:53;95737.66;;;6.15;90.77
3096;BME280;1558;42.700;23.360;2024-01-25T06:15:21;95737.94;;;6.13;90.99
3096;BME280;1558;42.700;23.360;2024-01-25T06:17:49;95731.28;;;6.11;91.05
3096;BME280;1558;42.700;23.360;2024-01-25T06:20:17;95746.56;;;6.10;91.46
3096;BME280;1558;42.700;23.360;2024-01-25T06:22:46;95711.50;;;5.93;91.31
3096;BME280;1558;42.700;23.360;2024-01-25T06:25:15;95735.94;;;6.05;90.76
3096;BME280;1558;42.700;23.360;2024-01-25T06:27:43;95736.50;;;6.02;91.34
3096;BME280;1558;42.700;23.360;2024-01-25T06:33:00;95733.75;;;6.07;91.87
3096;BME280;1558;42.700;23.360;2024-01-25T06:35:28;95736.34;;;6.12;91.54
3096;BME280;1558;42.700;23.360;2024-01-25T06:37:57;95729.88;;;6.13;91.60
3096;BME280;1558;42.700;23.360;2024-01-25T06:40:27;95747.09;;;6.26;91.79
3096;BME280;1558;42.700;23.360;2024-01-25T06:42:55;95740.38;;;6.29;90.94
3096;BME280;1558;42.700;23.360;2024-01-25T06:45:24;95736.81;;;6.33;90.97
3096;BME280;1558;42.700;23.360;2024-01-25T06:47:52;95736.81;;;6.33;90.16
3096;BME280;1558;42.700;23.360;2024-01-25T06:50:21;95740.22;;;6.39;90.02
3096;BME280;1558;42.700;23.360;2024-01-25T06:52:49;95729.50;;;6.39;90.40
3096;BME280;1558;42.700;23.360;2024-01-25T06:55:20;95718.84;;;6.34;89.91
3096;BME280;1558;42.700;23.360;2024-01-25T06:57:50;95709.31;;;6.28;90.07
3096;BME280;1558;42.700;23.360;2024-01-25T07:00:18;95719.69;;;6.48;88.95
3096;BME280;1558;42.700;23.360;2024-01-25T07:02:48;95726.66;;;6.49;88.70
3096;BME280;1558;42.700;23.360;2024-01-25T07:05:17;95714.41;;;6.43;89.64
3096;BME280;1558;42.700;23.360;2024-01-25T07:07:45;95721.88;;;6.46;89.23
3096;BME280;1558;42.700;23.360;2024-01-25T07:10:14;95685.81;;;6.25;88.47
3096;BME280;1558;42.700;23.360;2024-01-25T07:12:42;95654.81;;;6.05;89.13
3096;BME280;1558;42.700;23.360;2024-01-25T07:15:12;95720.59;;;6.57;87.68
3096;BME280;1558;42.700;23.360;2024-01-25T07:17:40;95699.56;;;6.64;87.47
3096;BME280;1558;42.700;23.360;2024-01-25T07:20:09;95676.22;;;6.51;87.72
3096;BME280;1558;42.700;23.360;2024-01-25T07:22:38;95705.03;;;6.86;86.61
3096;BME280;1558;42.700;23.360;2024-01-25T07:25:07;95714.28;;;6.94;85.55
3096;BME280;1558;42.700;23.360;2024-01-25T07:27:35;95711.28;;;6.95;85.86
3096;BME280;1558;42.700;23.360;2024-01-25T07:30:04;95716.66;;;6.95;85.85
3096;BME280;1558;42.700;23.360;2024-01-25T07:32:35;95717.16;;;6.97;86.18
3096;BME280;1558;42.700;23.360;2024-01-25T07:35:05;95728.19;;;6.96;86.10
3096;BME280;1558;42.700;23.360;2024-01-25T07:37:33;95718.84;;;6.93;86.14
3096;BME280;1558;42.700;23.360;2024-01-25T07:40:02;95727.78;;;7.02;84.98
3096;BME280;1558;42.700;23.360;2024-01-25T07:42:31;95709.81;;;7.03;85.24
3096;BME280;1558;42.700;23.360;2024-01-25T07:44:59;95728.38;;;7.13;83.99
3096;BME280;1558;42.700;23.360;2024-01-25T07:47:28;95740.09;;;7.17;83.65
3096;BME280;1558;42.700;23.360;2024-01-25T07:49:58;95741.41;;;7.19;83.41
3096;BME280;1558;42.700;23.360;2024-01-25T07:52:27;95745.97;;;7.19;84.13
3096;BME280;1558;42.700;23.360;2024-01-25T07:54:55;95745.38;;;7.22;82.43
3096;BME280;1558;42.700;23.360;2024-01-25T07:57:23;95724.81;;;7.17;83.39
3096;BME280;1558;42.700;23.360;2024-01-25T07:59:51;95748.88;;;7.72;82.64
3096;BME280;1558;42.700;23.360;2024-01-25T08:02:20;95751.03;;;8.19;80.74
3096;BME280;1558;42.700;23.360;2024-01-25T08:04:48;95744.59;;;8.06;78.38
3096;BME280;1558;42.700;23.360;2024-01-25T08:07:19;95736.38;;;8.03;78.49
3096;BME280;1558;42.700;23.360;2024-01-25T08:09:48;95751.47;;;7.99;79.27
3096;BME280;1558;42.700;23.360;2024-01-25T08:12:18;95757.66;;;7.99;79.05
3096;BME280;1558;42.700;23.360;2024-01-25T08:14:47;95730.97;;;7.81;79.33
3096;BME280;1558;42.700;23.360;2024-01-25T08:17:16;95746.69;;;7.74;79.65
3096;BME280;1558;42.700;23.360;2024-01-25T08:19:45;95689.38;;;7.42;79.21
3096;BME280;1558;42.700;23.360;2024-01-25T08:22:17;95751.16;;;7.78;79.10
3096;BME280;1558;42.700;23.360;2024-01-25T08:24:50;95754.75;;;7.74;78.68
3096;BME280;1558;42.700;23.360;2024-01-25T08:27:18;95738.84;;;7.64;78.88
3096;BME280;1558;42.700;23.360;2024-01-25T08:29:47;95618.34;;;6.91;79.14
3096;BME280;1558;42.700;23.360;2024-01-25T08:32:15;95757.13;;;7.75;78.26
3096;BME280;1558;42.700;23.360;2024-01-25T08:34:44;95731.41;;;7.61;78.45
3096;BME280;1558;42.700;23.360;2024-01-25T08:37:12;95748.16;;;7.80;77.64
3096;BME280;1558;42.700;23.360;2024-01-25T08:39:40;95755.72;;;7.78;78.66
3096;BME280;1558;42.700;23.360;2024-01-25T08:42:11;95757.63;;;7.77;77.97
3096;BME280;1558;42.700;23.360;2024-01-25T08:44:39;95728.91;;;7.64;75.85
3096;BME280;1558;42.700;23.360;2024-01-25T08:47:15;95751.69;;;7.67;76.54
3096;BME280;1558;42.700;23.360;2024-01-25T08:49:43;95755.06;;;7.72;76.29
3096;BME280;1558;42.700;23.360;2024-01-25T08:52:11;95758.41;;;7.78;75.54
3096;BME280;1558;42.700;23.360;2024-01-25T08:54:40;95751.53;;;7.85;76.54
3096;BME280;1558;42.700;23.360;2024-01-25T08:57:10;95731.06;;;7.76;75.31
3096;BME280;1558;42.700;23.360;2024-01-25T08:59:38;95766.69;;;8.03;75.93
3096;BME280;1558;42.700;23.360;2024-01-25T09:02:07;95754.13;;;8.12;74.27
3096;BME280;1558;42.700;23.360;2024-01-25T09:04:35;95766.56;;;8.08;74.03
3096;BME280;1558;42.700;23.360;2024-01-25T09:07:04;95746.38;;;8.11;74.67
3096;BME280;1558;42.700;23.360;2024-01-25T09:09:32;95766.22;;;8.24;74.30
3096;BME280;1558;42.700;23.360;2024-01-25T09:12:02;95761.50;;;8.43;74.33
3096;BME280;1558;42.700;23.360;2024-01-25T09:14:33;95693.63;;;8.68;72.52
3096;BME280;1558;42.700;23.360;2024-01-25T09:17:03;95731.59;;;8.97;70.96
3096;BME280;1558;42.700;23.360;2024-01-25T09:19:31;95754.47;;;9.17;71.29
3096;BME280;1558;42.700;23.360;2024-01-25T09:22:00;95760.78;;;9.12;71.06
3096;BME280;1558;42.700;23.360;2024-01-25T09:24:31;95744.16;;;8.79;71.39
3096;BME280;1558;42.700;23.360;2024-01-25T09:27:03;95742.09;;;8.76;71.74
3096;BME280;1558;42.700;23.360;2024-01-25T09:29:34;95752.91;;;8.63;72.27
3096;BME280;1558;42.700;23.360;2024-01-25T09:32:05;95739.47;;;8.63;73.23
3096;BME280;1558;42.700;23.360;2024-01-25T09:34:34;95737.19;;;8.78;72.18
3096;BME280;1558;42.700;23.360;2024-01-25T09:37:05;95732.88;;;9.47;70.65
3096;BME280;1558;42.700;23.360;2024-01-25T09:39:33;95726.72;;;9.64;69.57
3096;BME280;1558;42.700;23.360;2024-01-25T09:42:03;95726.81;;;9.33;69.57
3096;BME280;1558;42.700;23.360;2024-01-25T09:44:32;95722.19;;;9.17;70.43
3096;BME280;1558;42.700;23.360;2024-01-25T09:47:03;95717.94;;;9.33;70.51
3096;BME280;1558;42.700;23.360;2024-01-25T09:49:34;95721.50;;;9.03;69.59
3096;BME280;1558;42.700;23.360;2024-01-25T09:52:04;95720.81;;;8.89;71.18
3096;BME280;1558;42.700;23.360;2024-01-25T09:54:34;95721.75;;;8.93;71.92
3096;BME280;1558;42.700;23.360;2024-01-25T09:57:07;95727.41;;;8.82;71.01
3096;BME280;1558;42.700;23.360;2024-01-25T09:59:37;95722.03;;;8.82;71.46
3096;BME280;1558;42.700;23.360;2024-01-25T10:02:09;95715.34;;;8.71;72.10
3096;BME280;1558;42.700;23.360;2024-01-25T10:04:38;95712.09;;;8.61;71.67
3096;BME280;1558;42.700;23.360;2024-01-25T10:07:07;95719.81;;;8.54;72.44
3096;BME280;1558;42.700;23.360;2024-01-25T10:09:38;95708.28;;;8.53;73.18
3096;BME280;1558;42.700;23.360;2024-01-25T10:12:08;95711.47;;;8.55;72.80
3096;BME280;1558;42.700;23.360;2024-01-25T10:14:46;95696.53;;;8.49;73.54
3096;BME280;1558;42.700;23.360;2024-01-25T10:17:14;95553.19;;;7.70;72.98
3096;BME280;1558;42.700;23.360;2024-01-25T10:19:43;95676.00;;;8.84;73.50
3096;BME280;1558;42.700;23.360;2024-01-25T10:22:13;95687.31;;;9.03;73.18
3096;BME280;1558;42.700;23.360;2024-01-25T10:24:42;95680.13;;;9.38;71.96
3096;BME280;1558;42.700;23.360;2024-01-25T10:27:11;95683.66;;;9.81;70.33
3096;BME280;1558;42.700;23.360;2024-01-25T10:29:40;95678.09;;;9.78;69.66
3096;BME280;1558;42.700;23.360;2024-01-25T10:32:10;95685.41;;;9.86;69.37
3096;BME280;1558;42.700;23.360;2024-01-25T10:34:39;95620.41;;;9.44;68.80
3096;BME280;1558;42.700;23.360;2024-01-25T10:37:08;95681.75;;;10.07;68.89
3096;BME280;1558;42.700;23.360;2024-01-25T10:39:37;95669.69;;;9.96;68.48
3096;BME280;1558;42.700;23.360;2024-01-25T10:42:05;95670.66;;;9.66;68.98
3096;BME280;1558;42.700;23.360;2024-01-25T10:44:35;95677.59;;;9.50;69.48
3096;BME280;1558;42.700;23.360;2024-01-25T10:47:05;95677.56;;;9.33;70.00
3096;BME280;1558;42.700;23.360;2024-01-25T10:49:36;95674.22;;;9.19;70.36
3096;BME280;1558;42.700;23.360;2024-01-25T10:52:05;95656.13;;;9.11;70.97
3096;BME280;1558;42.700;23.360;2024-01-25T10:54:34;95607.94;;;8.75;71.55
3096;BME280;1558;42.700;23.360;2024-01-25T10:57:04;95662.19;;;9.16;70.94
3096;BME280;1558;42.700;23.360;2024-01-25T10:59:33;95650.00;;;9.19;70.87
3096;BME280;1558;42.700;23.360;2024-01-25T11:02:03;95655.38;;;9.19;70.58
3096;BME280;1558;42.700;23.360;2024-01-25T11:04:34;95671.00;;;9.08;71.35
3096;BME280;1558;42.700;23.360;2024-01-25T11:07:08;95661.16;;;8.95;71.81
3096;BME280;1558;42.700;23.360;2024-01-25T11:09:39;95656.25;;;8.89;71.50
3096;BME280;1558;42.700;23.360;2024-01-25T11:12:12;95651.69;;;8.98;71.94
3096;BME280;1558;42.700;23.360;2024-01-25T11:14:41;95633.19;;;9.05;72.87
3096;BME280;1558;42.700;23.360;2024-01-25T11:17:18;95621.28;;;8.97;71.74
3096;BME280;1558;42.700;23.360;2024-01-25T11:19:50;95610.25;;;9.07;71.34
3096;BME280;1558;42.700;23.360;2024-01-25T11:22:19;95589.75;;;8.80;71.09
3096;BME280;1558;42.700;23.360;2024-01-25T11:24:49;95604.03;;;8.90;71.31
3096;BME280;1558;42.700;23.360;2024-01-25T11:27:17;95556.47;;;8.51;71.43
3096;BME280;1558;42.700;23.360;2024-01-25T11:29:46;95606.22;;;8.79;72.65
3096;BME280;1558;42.700;23.360;2024-01-25T11:32:14;95573.41;;;8.60;72.07
3096;BME280;1558;42.700;23.360;2024-01-25T11:37:31;95594.59;;;8.61;71.24
3096;BME280;1558;42.700;23.360;2024-01-25T11:39:59;95594.75;;;8.56;70.99
3096;BME280;1558;42.700;23.360;2024-01-25T11:42:27;95583.91;;;8.39;69.93
3096;BME280;1558;42.700;23.360;2024-01-25T11:44:57;95599.16;;;8.52;69.40
3096;BME280;1558;42.700;23.360;2024-01-25T11:47:25;95598.22;;;8.48;70.02
3096;BME280;1558;42.700;23.360;2024-01-25T11:49:54;95607.22;;;8.44;69.70
3096;BME280;1558;42.700;23.360;2024-01-25T11:52:22;95598.03;;;8.45;69.50
3096;BME280;1558;42.700;23.360;2024-01-25T11:54:58;95574.97;;;8.22;70.30
3096;BME280;1558;42.700;23.360;2024-01-25T11:57:26;95568.69;;;8.26;70.58
3096;BME280;1558;42.700;23.360;2024-01-25T11:59:57;95574.50;;;8.50;70.11
3096;BME280;1558;42.700;23.360;2024-01-25T12:02:26;95587.50;;;8.65;69.83
3096;BME280;1558;42.700;23.360;2024-01-25T12:04:56;95609.19;;;8.69;69.46
3096;BME280;1558;42.700;23.360;2024-01-25T12:07:25;95601.75;;;8.66;69.15
3096;BME280;1558;42.700;23.360;2024-01-25T12:10:02;95595.09;;;8.63;69.44
3096;BME280;1558;42.700;23.360;2024-01-25T12:12:31;95591.91;;;8.61;69.35
3096;BME280;1558;42.700;23.360;2024-01-25T12:14:59;95589.03;;;8.49;69.70
3096;BME280;1558;42.700;23.360;2024-01-25T12:17:28;95586.19;;;8.54;69.81
3096;BME280;1558;42.700;23.360;2024-01-25T12:19:57;95579.19;;;8.36;69.53
3096;BME280;1558;42.700;23.360;2024-01-25T12:22:27;95577.00;;;8.47;70.49
3096;BME280;1558;42.700;23.360;2024-01-25T12:24:58;95587.56;;;8.82;69.95
3096;BME280;1558;42.700;23.360;2024-01-25T12:27:28;95588.59;;;9.38;68.66
3096;BME280;1558;42.700;23.360;2024-01-25T12:29:59;95571.47;;;9.68;66.36
3096;BME280;1558;42.700;23.360;2024-01-25T12:32:28;95532.97;;;9.76;66.25
3096;BME280;1558;42.700;23.360;2024-01-25T12:34:57;95531.66;;;9.91;65.39
3096;BME280;1558;42.700;23.360;2024-01-25T12:37:27;95533.69;;;10.02;64.44
3096;BME280;1558;42.700;23.360;2024-01-25T12:39:57;95519.47;;;9.93;64.50
3096;BME280;1558;42.700;23.360;2024-01-25T12:42:25;95526.41;;;9.94;64.44
3096;BME280;1558;42.700;23.360;2024-01-25T12:44:55;95486.97;;;9.90;64.40
3096;BME280;1558;42.700;23.360;2024-01-25T12:47:23;95517.91;;;10.39;64.12
3096;BME280;1558;42.700;23.360;2024-01-25T12:49:52;95520.22;;;10.49;63.62
3096;BME280;1558;42.700;23.360;2024-01-25T12:52:21;95501.56;;;10.35;62.35
3096;BME280;1558;42.700;23.360;2024-01-25T12:54:49;95503.03;;;10.62;62.61
3096;BME280;1558;42.700;23.360;2024-01-25T12:57:19;95452.44;;;10.30;61.63
3096;BME280;1558;42.700;23.360;2024-01-25T12:59:47;95504.25;;;10.35;61.68
3096;BME280;1558;42.700;23.360;2024-01-25T13:02:18;95474.69;;;10.09;62.63
3096;BME280;1558;42.700;23.360;2024-01-25T13:04:46;95490.41;;;10.16;62.48
3096;BME280;1558;42.700;23.360;2024-01-25T13:07:15;95484.69;;;10.47;62.54
3096;BME280;1558;42.700;23.360;2024-01-25T13:09:43;95472.09;;;10.59;60.46
3096;BME280;1558;42.700;23.360;2024-01-25T13:12:12;95466.75;;;10.22;60.52
3096;BME280;1558;42.700;23.360;2024-01-25T13:14:40;95474.88;;;10.13;60.44
3096;BME280;1558;42.700;23.360;2024-01-25T13:17:08;95467.41;;;10.18;61.30
3096;BME280;1558;42.700;23.360;2024-01-25T13:19:38;95484.94;;;10.33;60.50
3096;BME280;1558;42.700;23.360;2024-01-25T13:22:06;95501.63;;;10.27;61.06
3096;BME280;1558;42.700;23.360;2024-01-25T13:24:34;95489.81;;;10.40;60.34
3096;BME280;1558;42.700;23.360;2024-01-25T13:27:03;95504.91;;;9.77;61.46
3096;BME280;1558;42.700;23.360;2024-01-25T13:29:31;95525.69;;;9.68;62.45
3096;BME280;1558;42.700;23.360;2024-01-25T13:31:59;95494.31;;;9.72;62.42